sensor_id;sensor_type;location;lat;lon;timestamp;P1;durP1;ratioP1;P2;durP2;ratioP2
51578;SDS011;47998;53.242;6.386;2023-09-08T00:01:56;11.43;;;8.23;;
51578;SDS011;47998;53.242;6.386;2023-09-08T00:04:22;17.48;;;9.65;;
51578;SDS011;47998;53.242;6.386;2023-09-08T00:06:49;14.48;;;9.30;;
51578;SDS011;47998;53.242;6.386;2023-09-08T00:09:14;18.73;;;10.70;;
51578;SDS011;47998;53.242;6.386;2023-09-08T00:11:40;11.93;;;9.10;;
51578;SDS011;47998;53.242;6.386;2023-09-08T00:14:06;14.77;;;10.07;;
51578;SDS011;47998;53.242;6.386;2023-09-08T00:16:32;14.40;;;10.07;;
51578;SDS011;47998;53.242;6.386;2023-09-08T00:18:57;15.02;;;9.90;;
51578;SDS011;47998;53.242;6.386;2023-09-08T00:21:24;14.90;;;9.90;;
51578;SDS011;47998;53.242;6.386;2023-09-08T00:23:50;12.65;;;10.85;;
51578;SDS011;47998;53.242;6.386;2023-09-08T00:26:19;11.82;;;10.20;;
51578;SDS011;47998;53.242;6.386;2023-09-08T00:28:45;13.77;;;9.70;;
51578;SDS011;47998;53.242;6.386;2023-09-08T00:31:12;13.88;;;10.00;;
51578;SDS011;47998;53.242;6.386;2023-09-08T00:33:38;13.93;;;11.32;;
51578;SDS011;47998;53.242;6.386;2023-09-08T00:36:04;18.42;;;10.73;;
51578;SDS011;47998;53.242;6.386;2023-09-08T00:38:30;14.88;;;10.38;;
51578;SDS011;47998;53.242;6.386;2023-09-08T00:40:55;12.75;;;9.90;;
51578;SDS011;47998;53.242;6.386;2023-09-08T00:43:21;17.60;;;10.43;;
51578;SDS011;47998;53.242;6.386;2023-09-08T00:45:47;13.38;;;11.82;;
51578;SDS011;47998;53.242;6.386;2023-09-08T00:48:13;13.65;;;10.40;;
51578;SDS011;47998;53.242;6.386;2023-09-08T00:50:39;13.98;;;11.05;;
51578;SDS011;47998;53.242;6.386;2023-09-08T00:53:05;13.80;;;10.50;;
51578;SDS011;47998;53.242;6.386;2023-09-08T00:55:32;16.23;;;11.38;;
51578;SDS011;47998;53.242;6.386;2023-09-08T00:57:58;15.38;;;10.70;;
51578;SDS011;47998;53.242;6.386;2023-09-08T01:00:25;15.05;;;10.38;;
51578;SDS011;47998;53.242;6.386;2023-09-08T01:02:51;14.25;;;10.73;;
51578;SDS011;47998;53.242;6.386;2023-09-08T01:05:17;13.57;;;9.90;;
51578;SDS011;47998;53.242;6.386;2023-09-08T01:07:44;12.30;;;10.38;;
51578;SDS011;47998;53.242;6.386;2023-09-08T01:10:11;16.75;;;11.05;;
51578;SDS011;47998;53.242;6.386;2023-09-08T01:12:37;13.55;;;10.70;;
51578;SDS011;47998;53.242;6.386;2023-09-08T01:15:03;10.48;;;9.38;;
51578;SDS011;47998;53.242;6.386;2023-09-08T01:17:35;11.43;;;9.60;;
51578;SDS011;47998;53.242;6.386;2023-09-08T01:20:10;12.43;;;9.52;;
51578;SDS011;47998;53.242;6.386;2023-09-08T01:22:50;15.20;;;10.85;;
51578;SDS011;47998;53.242;6.386;2023-09-08T01:25:23;11.40;;;9.90;;
51578;SDS011;47998;53.242;6.386;2023-09-08T01:27:51;10.77;;;9.65;;
51578;SDS011;47998;53.242;6.386;2023-09-08T01:30:19;11.50;;;9.85;;
51578;SDS011;47998;53.242;6.386;2023-09-08T01:32:46;14.85;;;9.90;;
51578;SDS011;47998;53.242;6.386;2023-09-08T01:35:12;12.40;;;9.75;;
51578;SDS011;47998;53.242;6.386;2023-09-08T01:37:43;13.52;;;9.63;;
51578;SDS011;47998;53.242;6.386;2023-09-08T01:40:10;11.37;;;9.23;;
51578;SDS011;47998;53.242;6.386;2023-09-08T01:42:37;12.13;;;9.02;;
51578;SDS011;47998;53.242;6.386;2023-09-08T01:45:03;12.25;;;9.30;;
51578;SDS011;47998;53.242;6.386;2023-09-08T01:47:29;11.38;;;9.70;;
51578;SDS011;47998;53.242;6.386;2023-09-08T01:49:55;12.63;;;9.57;;
51578;SDS011;47998;53.242;6.386;2023-09-08T01:52:21;14.27;;;9.20;;
51578;SDS011;47998;53.242;6.386;2023-09-08T01:54:47;12.18;;;10.02;;
51578;SDS011;47998;53.242;6.386;2023-09-08T01:57:12;14.02;;;9.50;;
51578;SDS011;47998;53.242;6.386;2023-09-08T01:59:38;12.85;;;9.45;;
51578;SDS011;47998;53.242;6.386;2023-09-08T02:02:04;11.95;;;9.35;;
51578;SDS011;47998;53.242;6.386;2023-09-08T02:04:30;14.20;;;9.57;;
51578;SDS011;47998;53.242;6.386;2023-09-08T02:06:55;13.25;;;9.77;;
51578;SDS011;47998;53.242;6.386;2023-09-08T02:09:21;12.88;;;10.10;;
51578;SDS011;47998;53.242;6.386;2023-09-08T02:11:47;14.38;;;10.13;;
51578;SDS011;47998;53.242;6.386;2023-09-08T02:14:13;14.77;;;11.00;;
51578;SDS011;47998;53.242;6.386;2023-09-08T02:16:38;15.50;;;10.15;;
51578;SDS011;47998;53.242;6.386;2023-09-08T02:19:04;11.00;;;9.90;;
51578;SDS011;47998;53.242;6.386;2023-09-08T02:21:30;13.63;;;10.05;;
51578;SDS011;47998;53.242;6.386;2023-09-08T02:23:56;13.98;;;9.95;;
51578;SDS011;47998;53.242;6.386;2023-09-08T02:26:22;11.45;;;10.07;;
51578;SDS011;47998;53.242;6.386;2023-09-08T02:28:47;16.10;;;9.95;;
51578;SDS011;47998;53.242;6.386;2023-09-08T02:31:13;10.48;;;9.38;;
51578;SDS011;47998;53.242;6.386;2023-09-08T02:33:39;11.30;;;10.07;;
51578;SDS011;47998;53.242;6.386;2023-09-08T02:36:04;11.60;;;9.40;;
51578;SDS011;47998;53.242;6.386;2023-09-08T02:38:34;16.00;;;10.50;;
51578;SDS011;47998;53.242;6.386;2023-09-08T02:40:59;13.27;;;9.90;;
51578;SDS011;47998;53.242;6.386;2023-09-08T02:43:25;13.27;;;10.35;;
51578;SDS011;47998;53.242;6.386;2023-09-08T02:45:52;14.98;;;10.32;;
51578;SDS011;47998;53.242;6.386;2023-09-08T02:48:18;13.00;;;9.60;;
51578;SDS011;47998;53.242;6.386;2023-09-08T02:50:43;12.23;;;10.00;;
51578;SDS011;47998;53.242;6.386;2023-09-08T02:53:09;12.90;;;8.85;;
51578;SDS011;47998;53.242;6.386;2023-09-08T02:55:35;13.90;;;10.23;;
51578;SDS011;47998;53.242;6.386;2023-09-08T02:58:01;14.43;;;10.25;;
51578;SDS011;47998;53.242;6.386;2023-09-08T03:00:26;10.52;;;9.38;;
51578;SDS011;47998;53.242;6.386;2023-09-08T03:02:52;13.05;;;10.65;;
51578;SDS011;47998;53.242;6.386;2023-09-08T03:05:17;10.52;;;8.80;;
51578;SDS011;47998;53.242;6.386;2023-09-08T03:07:43;13.93;;;10.38;;
51578;SDS011;47998;53.242;6.386;2023-09-08T03:10:12;12.98;;;10.68;;
51578;SDS011;47998;53.242;6.386;2023-09-08T03:12:38;11.40;;;9.80;;
51578;SDS011;47998;53.242;6.386;2023-09-08T03:15:04;11.07;;;9.73;;
51578;SDS011;47998;53.242;6.386;2023-09-08T03:17:30;14.32;;;10.32;;
51578;SDS011;47998;53.242;6.386;2023-09-08T03:19:56;13.88;;;10.70;;
51578;SDS011;47998;53.242;6.386;2023-09-08T03:22:21;12.35;;;10.30;;
51578;SDS011;47998;53.242;6.386;2023-09-08T03:24:48;16.70;;;11.95;;
51578;SDS011;47998;53.242;6.386;2023-09-08T03:27:13;15.85;;;11.05;;
51578;SDS011;47998;53.242;6.386;2023-09-08T03:29:39;12.13;;;10.82;;
51578;SDS011;47998;53.242;6.386;2023-09-08T03:32:05;11.63;;;10.40;;
51578;SDS011;47998;53.242;6.386;2023-09-08T03:34:31;12.90;;;11.15;;
51578;SDS011;47998;53.242;6.386;2023-09-08T03:36:56;12.52;;;10.88;;
51578;SDS011;47998;53.242;6.386;2023-09-08T03:39:22;13.57;;;12.07;;
51578;SDS011;47998;53.242;6.386;2023-09-08T03:41:48;14.45;;;11.98;;
51578;SDS011;47998;53.242;6.386;2023-09-08T03:44:13;13.18;;;10.75;;
51578;SDS011;47998;53.242;6.386;2023-09-08T03:46:39;14.63;;;11.63;;
51578;SDS011;47998;53.242;6.386;2023-09-08T03:49:05;13.25;;;11.27;;
51578;SDS011;47998;53.242;6.386;2023-09-08T03:51:32;12.23;;;10.93;;
51578;SDS011;47998;53.242;6.386;2023-09-08T03:53:58;16.45;;;11.93;;
51578;SDS011;47998;53.242;6.386;2023-09-08T03:56:24;13.18;;;11.82;;
51578;SDS011;47998;53.242;6.386;2023-09-08T03:58:49;16.35;;;12.02;;
51578;SDS011;47998;53.242;6.386;2023-09-08T04:01:15;16.73;;;11.48;;
51578;SDS011;47998;53.242;6.386;2023-09-08T04:03:41;17.77;;;11.18;;
51578;SDS011;47998;53.242;6.386;2023-09-08T04:06:07;17.52;;;11.95;;
51578;SDS011;47998;53.242;6.386;2023-09-08T04:08:34;13.20;;;11.52;;
51578;SDS011;47998;53.242;6.386;2023-09-08T04:11:00;16.00;;;12.50;;
51578;SDS011;47998;53.242;6.386;2023-09-08T04:13:25;15.65;;;11.98;;
51578;SDS011;47998;53.242;6.386;2023-09-08T04:15:51;16.70;;;12.40;;
51578;SDS011;47998;53.242;6.386;2023-09-08T04:18:17;14.68;;;11.50;;
51578;SDS011;47998;53.242;6.386;2023-09-08T04:20:42;15.77;;;12.40;;
51578;SDS011;47998;53.242;6.386;2023-09-08T04:23:08;16.38;;;13.07;;
51578;SDS011;47998;53.242;6.386;2023-09-08T04:25:34;16.52;;;13.52;;
51578;SDS011;47998;53.242;6.386;2023-09-08T04:28:01;14.57;;;12.65;;
51578;SDS011;47998;53.242;6.386;2023-09-08T04:30:27;18.48;;;12.68;;
51578;SDS011;47998;53.242;6.386;2023-09-08T04:32:53;16.13;;;13.38;;
51578;SDS011;47998;53.242;6.386;2023-09-08T04:35:19;17.17;;;12.85;;
51578;SDS011;47998;53.242;6.386;2023-09-08T04:37:44;14.68;;;13.10;;
51578;SDS011;47998;53.242;6.386;2023-09-08T04:40:10;14.85;;;13.13;;
51578;SDS011;47998;53.242;6.386;2023-09-08T04:42:36;17.85;;;13.27;;
51578;SDS011;47998;53.242;6.386;2023-09-08T04:45:01;16.17;;;12.05;;
51578;SDS011;47998;53.242;6.386;2023-09-08T04:47:27;14.70;;;13.07;;
51578;SDS011;47998;53.242;6.386;2023-09-08T04:49:53;16.45;;;12.85;;
51578;SDS011;47998;53.242;6.386;2023-09-08T04:52:19;17.48;;;12.70;;
51578;SDS011;47998;53.242;6.386;2023-09-08T04:54:44;14.98;;;13.07;;
51578;SDS011;47998;53.242;6.386;2023-09-08T04:57:10;21.13;;;13.70;;
51578;SDS011;47998;53.242;6.386;2023-09-08T04:59:36;14.30;;;12.77;;
51578;SDS011;47998;53.242;6.386;2023-09-08T05:02:04;16.23;;;13.90;;
51578;SDS011;47998;53.242;6.386;2023-09-08T05:04:29;15.05;;;12.40;;
51578;SDS011;47998;53.242;6.386;2023-09-08T05:06:55;17.50;;;13.20;;
51578;SDS011;47998;53.242;6.386;2023-09-08T05:09:21;17.70;;;14.45;;
51578;SDS011;47998;53.242;6.386;2023-09-08T05:11:46;15.43;;;12.70;;
51578;SDS011;47998;53.242;6.386;2023-09-08T05:14:12;17.30;;;13.65;;
51578;SDS011;47998;53.242;6.386;2023-09-08T05:16:38;13.60;;;11.90;;
51578;SDS011;47998;53.242;6.386;2023-09-08T05:19:14;14.85;;;13.35;;
51578;SDS011;47998;53.242;6.386;2023-09-08T05:21:40;16.35;;;12.25;;
51578;SDS011;47998;53.242;6.386;2023-09-08T05:24:08;14.00;;;12.60;;
51578;SDS011;47998;53.242;6.386;2023-09-08T05:26:36;15.00;;;13.25;;
51578;SDS011;47998;53.242;6.386;2023-09-08T05:29:02;15.35;;;13.10;;
51578;SDS011;47998;53.242;6.386;2023-09-08T05:31:28;16.73;;;12.55;;
51578;SDS011;47998;53.242;6.386;2023-09-08T05:33:54;14.90;;;11.88;;
51578;SDS011;47998;53.242;6.386;2023-09-08T05:36:20;15.45;;;12.07;;
51578;SDS011;47998;53.242;6.386;2023-09-08T05:38:45;16.83;;;12.55;;
51578;SDS011;47998;53.242;6.386;2023-09-08T05:41:11;16.00;;;12.40;;
51578;SDS011;47998;53.242;6.386;2023-09-08T05:43:37;15.05;;;12.45;;
51578;SDS011;47998;53.242;6.386;2023-09-08T05:46:03;14.77;;;12.55;;
51578;SDS011;47998;53.242;6.386;2023-09-08T05:48:29;14.40;;;11.95;;
51578;SDS011;47998;53.242;6.386;2023-09-08T05:50:55;18.33;;;13.23;;
51578;SDS011;47998;53.242;6.386;2023-09-08T05:53:21;13.75;;;12.27;;
51578;SDS011;47998;53.242;6.386;2023-09-08T05:55:46;15.07;;;12.18;;
51578;SDS011;47998;53.242;6.386;2023-09-08T05:58:12;16.30;;;12.02;;
51578;SDS011;47998;53.242;6.386;2023-09-08T06:00:38;17.00;;;12.32;;
51578;SDS011;47998;53.242;6.386;2023-09-08T06:03:04;12.82;;;11.50;;
51578;SDS011;47998;53.242;6.386;2023-09-08T06:05:30;14.73;;;10.60;;
51578;SDS011;47998;53.242;6.386;2023-09-08T06:07:56;14.55;;;11.27;;
51578;SDS011;47998;53.242;6.386;2023-09-08T06:10:22;13.65;;;10.60;;
51578;SDS011;47998;53.242;6.386;2023-09-08T06:12:47;15.55;;;11.15;;
51578;SDS011;47998;53.242;6.386;2023-09-08T06:15:16;11.77;;;10.52;;
51578;SDS011;47998;53.242;6.386;2023-09-08T06:17:42;15.23;;;11.00;;
51578;SDS011;47998;53.242;6.386;2023-09-08T06:20:08;13.57;;;11.35;;
51578;SDS011;47998;53.242;6.386;2023-09-08T06:22:34;13.45;;;10.45;;
51578;SDS011;47998;53.242;6.386;2023-09-08T06:24:59;13.45;;;11.23;;
51578;SDS011;47998;53.242;6.386;2023-09-08T06:27:25;12.32;;;10.10;;
51578;SDS011;47998;53.242;6.386;2023-09-08T06:29:51;14.43;;;10.60;;
51578;SDS011;47998;53.242;6.386;2023-09-08T06:32:17;12.00;;;10.73;;
51578;SDS011;47998;53.242;6.386;2023-09-08T06:34:42;17.50;;;11.30;;
51578;SDS011;47998;53.242;6.386;2023-09-08T06:37:08;14.70;;;11.15;;
51578;SDS011;47998;53.242;6.386;2023-09-08T06:39:34;10.32;;;9.30;;
51578;SDS011;47998;53.242;6.386;2023-09-08T06:41:59;11.57;;;9.55;;
51578;SDS011;47998;53.242;6.386;2023-09-08T06:44:25;10.75;;;9.63;;
51578;SDS011;47998;53.242;6.386;2023-09-08T06:46:51;17.98;;;10.05;;
51578;SDS011;47998;53.242;6.386;2023-09-08T06:49:17;13.63;;;10.13;;
51578;SDS011;47998;53.242;6.386;2023-09-08T06:51:42;11.93;;;9.40;;
51578;SDS011;47998;53.242;6.386;2023-09-08T06:54:08;16.17;;;10.07;;
51578;SDS011;47998;53.242;6.386;2023-09-08T06:56:35;10.18;;;9.10;;
51578;SDS011;47998;53.242;6.386;2023-09-08T06:59:00;11.27;;;9.70;;
51578;SDS011;47998;53.242;6.386;2023-09-08T07:01:26;12.02;;;9.48;;
51578;SDS011;47998;53.242;6.386;2023-09-08T07:03:53;10.13;;;9.00;;
51578;SDS011;47998;53.242;6.386;2023-09-08T07:06:18;11.93;;;9.05;;
51578;SDS011;47998;53.242;6.386;2023-09-08T07:08:47;9.82;;;8.35;;
51578;SDS011;47998;53.242;6.386;2023-09-08T07:11:15;12.73;;;9.13;;
51578;SDS011;47998;53.242;6.386;2023-09-08T07:13:41;16.08;;;9.90;;
51578;SDS011;47998;53.242;6.386;2023-09-08T07:16:07;11.45;;;9.07;;
51578;SDS011;47998;53.242;6.386;2023-09-08T07:18:32;12.90;;;8.65;;
51578;SDS011;47998;53.242;6.386;2023-09-08T07:21:02;11.02;;;9.43;;
51578;SDS011;47998;53.242;6.386;2023-09-08T07:23:28;10.60;;;8.90;;
51578;SDS011;47998;53.242;6.386;2023-09-08T07:25:54;10.52;;;8.98;;
51578;SDS011;47998;53.242;6.386;2023-09-08T07:28:20;12.32;;;8.57;;
51578;SDS011;47998;53.242;6.386;2023-09-08T07:30:45;12.52;;;8.82;;
51578;SDS011;47998;53.242;6.386;2023-09-08T07:33:11;10.65;;;8.43;;
51578;SDS011;47998;53.242;6.386;2023-09-08T07:35:37;9.90;;;8.90;;
51578;SDS011;47998;53.242;6.386;2023-09-08T07:38:04;10.25;;;7.60;;
51578;SDS011;47998;53.242;6.386;2023-09-08T07:40:31;13.00;;;8.77;;
51578;SDS011;47998;53.242;6.386;2023-09-08T07:43:00;13.30;;;8.32;;
51578;SDS011;47998;53.242;6.386;2023-09-08T07:45:26;9.70;;;7.40;;
51578;SDS011;47998;53.242;6.386;2023-09-08T07:47:52;13.77;;;7.63;;
51578;SDS011;47998;53.242;6.386;2023-09-08T07:50:22;10.25;;;7.35;;
51578;SDS011;47998;53.242;6.386;2023-09-08T07:52:53;8.65;;;7.55;;
51578;SDS011;47998;53.242;6.386;2023-09-08T07:55:20;9.20;;;7.82;;
51578;SDS011;47998;53.242;6.386;2023-09-08T07:57:48;10.00;;;8.18;;
51578;SDS011;47998;53.242;6.386;2023-09-08T08:00:14;7.78;;;6.93;;
51578;SDS011;47998;53.242;6.386;2023-09-08T08:02:48;10.93;;;7.53;;
51578;SDS011;47998;53.242;6.386;2023-09-08T08:05:15;8.43;;;6.90;;
51578;SDS011;47998;53.242;6.386;2023-09-08T08:07:41;8.55;;;6.72;;
51578;SDS011;47998;53.242;6.386;2023-09-08T08:10:09;10.07;;;6.65;;
51578;SDS011;47998;53.242;6.386;2023-09-08T08:12:36;9.38;;;6.05;;
51578;SDS011;47998;53.242;6.386;2023-09-08T08:15:02;9.70;;;6.45;;
51578;SDS011;47998;53.242;6.386;2023-09-08T08:17:29;6.63;;;6.00;;
51578;SDS011;47998;53.242;6.386;2023-09-08T08:19:56;11.43;;;6.60;;
51578;SDS011;47998;53.242;6.386;2023-09-08T08:22:24;7.95;;;6.25;;
51578;SDS011;47998;53.242;6.386;2023-09-08T08:24:50;7.53;;;6.40;;
51578;SDS011;47998;53.242;6.386;2023-09-08T08:27:16;7.20;;;5.95;;
51578;SDS011;47998;53.242;6.386;2023-09-08T08:29:42;9.90;;;6.85;;
51578;SDS011;47998;53.242;6.386;2023-09-08T08:32:07;7.43;;;5.95;;
51578;SDS011;47998;53.242;6.386;2023-09-08T08:34:34;6.82;;;5.97;;
51578;SDS011;47998;53.242;6.386;2023-09-08T08:37:00;9.27;;;6.22;;
51578;SDS011;47998;53.242;6.386;2023-09-08T08:39:25;6.65;;;5.95;;
51578;SDS011;47998;53.242;6.386;2023-09-08T08:41:51;11.43;;;5.10;;
51578;SDS011;47998;53.242;6.386;2023-09-08T08:44:17;6.97;;;5.72;;
51578;SDS011;47998;53.242;6.386;2023-09-08T08:46:44;10.10;;;5.63;;
51578;SDS011;47998;53.242;6.386;2023-09-08T08:49:11;8.38;;;5.13;;
51578;SDS011;47998;53.242;6.386;2023-09-08T08:51:44;5.72;;;4.28;;
51578;SDS011;47998;53.242;6.386;2023-09-08T08:54:13;10.60;;;4.90;;
51578;SDS011;47998;53.242;6.386;2023-09-08T08:56:41;6.18;;;5.07;;
51578;SDS011;47998;53.242;6.386;2023-09-08T08:59:08;5.20;;;4.57;;
51578;SDS011;47998;53.242;6.386;2023-09-08T09:01:35;6.45;;;4.05;;
51578;SDS011;47998;53.242;6.386;2023-09-08T09:04:01;8.85;;;4.43;;
51578;SDS011;47998;53.242;6.386;2023-09-08T09:06:31;7.30;;;4.60;;
51578;SDS011;47998;53.242;6.386;2023-09-08T09:08:57;7.28;;;4.43;;
51578;SDS011;47998;53.242;6.386;2023-09-08T09:11:24;5.75;;;4.15;;
51578;SDS011;47998;53.242;6.386;2023-09-08T09:13:50;6.45;;;3.80;;
51578;SDS011;47998;53.242;6.386;2023-09-08T09:16:16;7.60;;;3.72;;
51578;SDS011;47998;53.242;6.386;2023-09-08T09:21:20;5.68;;;4.53;;
51578;SDS011;47998;53.242;6.386;2023-09-08T09:23:47;5.30;;;4.32;;
51578;SDS011;47998;53.242;6.386;2023-09-08T09:26:22;7.63;;;4.20;;
51578;SDS011;47998;53.242;6.386;2023-09-08T09:28:50;7.82;;;4.80;;
51578;SDS011;47998;53.242;6.386;2023-09-08T09:31:17;4.82;;;4.13;;
51578;SDS011;47998;53.242;6.386;2023-09-08T09:33:44;8.23;;;4.80;;
51578;SDS011;47998;53.242;6.386;2023-09-08T09:36:10;6.47;;;4.43;;
51578;SDS011;47998;53.242;6.386;2023-09-08T09:38:46;12.90;;;4.45;;
51578;SDS011;47998;53.242;6.386;2023-09-08T09:41:12;6.15;;;3.53;;
51578;SDS011;47998;53.242;6.386;2023-09-08T09:43:38;4.60;;;4.15;;
51578;SDS011;47998;53.242;6.386;2023-09-08T09:46:06;5.90;;;3.88;;
51578;SDS011;47998;53.242;6.386;2023-09-08T09:48:33;5.25;;;3.95;;
51578;SDS011;47998;53.242;6.386;2023-09-08T09:51:00;5.03;;;3.92;;
51578;SDS011;47998;53.242;6.386;2023-09-08T09:53:44;6.53;;;4.35;;
51578;SDS011;47998;53.242;6.386;2023-09-08T09:56:11;6.03;;;3.75;;
51578;SDS011;47998;53.242;6.386;2023-09-08T09:58:38;7.32;;;3.92;;
51578;SDS011;47998;53.242;6.386;2023-09-08T10:01:05;5.88;;;3.80;;
51578;SDS011;47998;53.242;6.386;2023-09-08T10:03:32;5.38;;;3.40;;
51578;SDS011;47998;53.242;6.386;2023-09-08T10:05:59;5.35;;;4.05;;
51578;SDS011;47998;53.242;6.386;2023-09-08T10:08:25;9.43;;;3.90;;
51578;SDS011;47998;53.242;6.386;2023-09-08T10:10:52;4.53;;;3.67;;
51578;SDS011;47998;53.242;6.386;2023-09-08T10:13:21;6.57;;;3.55;;
51578;SDS011;47998;53.242;6.386;2023-09-08T10:15:57;4.80;;;3.60;;
51578;SDS011;47998;53.242;6.386;2023-09-08T10:18:24;5.03;;;4.03;;
51578;SDS011;47998;53.242;6.386;2023-09-08T10:20:51;6.10;;;3.30;;
51578;SDS011;47998;53.242;6.386;2023-09-08T10:25:53;5.85;;;3.50;;
51578;SDS011;47998;53.242;6.386;2023-09-08T10:28:24;3.40;;;3.05;;
51578;SDS011;47998;53.242;6.386;2023-09-08T10:30:51;5.25;;;3.83;;
51578;SDS011;47998;53.242;6.386;2023-09-08T10:33:18;4.63;;;3.30;;
51578;SDS011;47998;53.242;6.386;2023-09-08T10:35:45;6.75;;;3.72;;
51578;SDS011;47998;53.242;6.386;2023-09-08T10:38:27;5.53;;;3.53;;
51578;SDS011;47998;53.242;6.386;2023-09-08T10:43:45;4.88;;;3.80;;
51578;SDS011;47998;53.242;6.386;2023-09-08T10:46:21;6.18;;;3.80;;
51578;SDS011;47998;53.242;6.386;2023-09-08T10:48:48;8.73;;;3.63;;
51578;SDS011;47998;53.242;6.386;2023-09-08T10:51:17;6.88;;;3.35;;
51578;SDS011;47998;53.242;6.386;2023-09-08T10:53:42;9.35;;;3.78;;
51578;SDS011;47998;53.242;6.386;2023-09-08T10:56:11;7.45;;;4.35;;
51578;SDS011;47998;53.242;6.386;2023-09-08T10:58:37;5.18;;;3.78;;
51578;SDS011;47998;53.242;6.386;2023-09-08T11:01:06;6.78;;;3.70;;
51578;SDS011;47998;53.242;6.386;2023-09-08T11:08:30;10.48;;;3.58;;
51578;SDS011;47998;53.242;6.386;2023-09-08T11:10:57;6.97;;;3.25;;
51578;SDS011;47998;53.242;6.386;2023-09-08T11:13:23;5.30;;;3.50;;
51578;SDS011;47998;53.242;6.386;2023-09-08T11:15:52;5.43;;;3.33;;
51578;SDS011;47998;53.242;6.386;2023-09-08T11:18:25;5.80;;;3.72;;
51578;SDS011;47998;53.242;6.386;2023-09-08T11:20:52;7.07;;;3.65;;
51578;SDS011;47998;53.242;6.386;2023-09-08T11:23:18;6.30;;;3.60;;
51578;SDS011;47998;53.242;6.386;2023-09-08T11:25:45;8.70;;;3.60;;
51578;SDS011;47998;53.242;6.386;2023-09-08T11:28:11;7.63;;;3.17;;
51578;SDS011;47998;53.242;6.386;2023-09-08T11:30:38;5.80;;;3.47;;
51578;SDS011;47998;53.242;6.386;2023-09-08T11:33:05;8.95;;;3.42;;
51578;SDS011;47998;53.242;6.386;2023-09-08T11:35:45;4.85;;;3.50;;
51578;SDS011;47998;53.242;6.386;2023-09-08T11:38:11;5.35;;;3.70;;
51578;SDS011;47998;53.242;6.386;2023-09-08T11:40:37;6.15;;;3.75;;
51578;SDS011;47998;53.242;6.386;2023-09-08T11:43:04;5.53;;;4.00;;
51578;SDS011;47998;53.242;6.386;2023-09-08T11:45:33;7.18;;;3.80;;
51578;SDS011;47998;53.242;6.386;2023-09-08T11:48:00;5.43;;;3.03;;
51578;SDS011;47998;53.242;6.386;2023-09-08T11:50:26;6.57;;;3.65;;
51578;SDS011;47998;53.242;6.386;2023-09-08T11:52:52;5.32;;;3.72;;
51578;SDS011;47998;53.242;6.386;2023-09-08T11:55:21;5.75;;;3.60;;
51578;SDS011;47998;53.242;6.386;2023-09-08T11:57:48;5.60;;;3.60;;
51578;SDS011;47998;53.242;6.386;2023-09-08T12:00:19;5.05;;;4.07;;
51578;SDS011;47998;53.242;6.386;2023-09-08T12:02:48;4.10;;;3.70;;
51578;SDS011;47998;53.242;6.386;2023-09-08T12:05:27;6.47;;;3.45;;
51578;SDS011;47998;53.242;6.386;2023-09-08T12:07:54;4.90;;;3.55;;
51578;SDS011;47998;53.242;6.386;2023-09-08T12:10:21;6.80;;;3.25;;
51578;SDS011;47998;53.242;6.386;2023-09-08T12:12:51;5.55;;;2.92;;
51578;SDS011;47998;53.242;6.386;2023-09-08T12:18:01;6.65;;;3.25;;
51578;SDS011;47998;53.242;6.386;2023-09-08T12:20:28;4.53;;;3.22;;
51578;SDS011;47998;53.242;6.386;2023-09-08T12:22:56;9.05;;;3.13;;
51578;SDS011;47998;53.242;6.386;2023-09-08T12:25:26;4.57;;;3.20;;
51578;SDS011;47998;53.242;6.386;2023-09-08T12:27:53;3.72;;;3.00;;
51578;SDS011;47998;53.242;6.386;2023-09-08T12:30:20;4.55;;;2.97;;
51578;SDS011;47998;53.242;6.386;2023-09-08T12:32:47;5.30;;;2.90;;
51578;SDS011;47998;53.242;6.386;2023-09-08T12:35:19;7.43;;;3.22;;
51578;SDS011;47998;53.242;6.386;2023-09-08T12:37:47;3.75;;;3.05;;
51578;SDS011;47998;53.242;6.386;2023-09-08T12:40:23;3.95;;;3.05;;
51578;SDS011;47998;53.242;6.386;2023-09-08T12:42:49;6.18;;;2.80;;
51578;SDS011;47998;53.242;6.386;2023-09-08T12:45:15;5.63;;;2.80;;
51578;SDS011;47998;53.242;6.386;2023-09-08T12:47:40;3.28;;;2.53;;
51578;SDS011;47998;53.242;6.386;2023-09-08T12:50:08;3.95;;;2.72;;
51578;SDS011;47998;53.242;6.386;2023-09-08T12:52:34;5.43;;;3.20;;
51578;SDS011;47998;53.242;6.386;2023-09-08T12:55:00;5.75;;;3.28;;
51578;SDS011;47998;53.242;6.386;2023-09-08T12:57:26;6.38;;;2.95;;
51578;SDS011;47998;53.242;6.386;2023-09-08T12:59:52;6.07;;;2.88;;
51578;SDS011;47998;53.242;6.386;2023-09-08T13:02:17;5.78;;;3.35;;
51578;SDS011;47998;53.242;6.386;2023-09-08T13:04:43;9.07;;;3.65;;
51578;SDS011;47998;53.242;6.386;2023-09-08T13:07:16;4.25;;;2.97;;
51578;SDS011;47998;53.242;6.386;2023-09-08T13:09:42;7.78;;;3.00;;
51578;SDS011;47998;53.242;6.386;2023-09-08T13:12:09;4.63;;;2.97;;
51578;SDS011;47998;53.242;6.386;2023-09-08T13:14:35;6.60;;;3.25;;
51578;SDS011;47998;53.242;6.386;2023-09-08T13:17:01;4.63;;;3.45;;
51578;SDS011;47998;53.242;6.386;2023-09-08T13:19:28;5.15;;;2.70;;
51578;SDS011;47998;53.242;6.386;2023-09-08T13:21:54;5.18;;;3.17;;
51578;SDS011;47998;53.242;6.386;2023-09-08T13:24:20;3.83;;;2.78;;
51578;SDS011;47998;53.242;6.386;2023-09-08T13:26:47;5.38;;;2.83;;
51578;SDS011;47998;53.242;6.386;2023-09-08T13:29:13;5.45;;;3.05;;
51578;SDS011;47998;53.242;6.386;2023-09-08T13:31:39;4.28;;;3.13;;
51578;SDS011;47998;53.242;6.386;2023-09-08T13:34:05;7.38;;;2.80;;
51578;SDS011;47998;53.242;6.386;2023-09-08T13:36:31;4.30;;;2.78;;
51578;SDS011;47998;53.242;6.386;2023-09-08T13:38:57;4.78;;;3.00;;
51578;SDS011;47998;53.242;6.386;2023-09-08T13:41:43;5.20;;;2.50;;
51578;SDS011;47998;53.242;6.386;2023-09-08T13:44:09;5.88;;;2.88;;
51578;SDS011;47998;53.242;6.386;2023-09-08T13:46:34;5.75;;;3.17;;
51578;SDS011;47998;53.242;6.386;2023-09-08T13:49:00;3.60;;;2.38;;
51578;SDS011;47998;53.242;6.386;2023-09-08T13:51:26;5.63;;;2.65;;
51578;SDS011;47998;53.242;6.386;2023-09-08T13:53:51;3.00;;;2.45;;
51578;SDS011;47998;53.242;6.386;2023-09-08T13:56:17;4.25;;;2.88;;
51578;SDS011;47998;53.242;6.386;2023-09-08T13:58:43;4.32;;;2.88;;
51578;SDS011;47998;53.242;6.386;2023-09-08T14:01:10;4.35;;;3.30;;
51578;SDS011;47998;53.242;6.386;2023-09-08T14:03:36;6.32;;;2.70;;
51578;SDS011;47998;53.242;6.386;2023-09-08T14:06:02;7.60;;;3.25;;
51578;SDS011;47998;53.242;6.386;2023-09-08T14:08:27;5.25;;;3.05;;
51578;SDS011;47998;53.242;6.386;2023-09-08T14:10:53;6.65;;;3.05;;
51578;SDS011;47998;53.242;6.386;2023-09-08T14:13:19;2.92;;;2.63;;
51578;SDS011;47998;53.242;6.386;2023-09-08T14:15:45;14.48;;;3.45;;
51578;SDS011;47998;53.242;6.386;2023-09-08T14:18:11;5.07;;;2.75;;
51578;SDS011;47998;53.242;6.386;2023-09-08T14:20:36;4.50;;;3.05;;
51578;SDS011;47998;53.242;6.386;2023-09-08T14:23:02;7.97;;;3.38;;
51578;SDS011;47998;53.242;6.386;2023-09-08T14:25:28;6.00;;;3.38;;
51578;SDS011;47998;53.242;6.386;2023-09-08T14:27:54;4.22;;;2.83;;
51578;SDS011;47998;53.242;6.386;2023-09-08T14:30:19;5.43;;;2.80;;
51578;SDS011;47998;53.242;6.386;2023-09-08T14:32:46;9.50;;;3.50;;
51578;SDS011;47998;53.242;6.386;2023-09-08T14:35:11;5.18;;;3.30;;
51578;SDS011;47998;53.242;6.386;2023-09-08T14:37:38;6.03;;;2.95;;
51578;SDS011;47998;53.242;6.386;2023-09-08T14:40:03;3.20;;;2.90;;
51578;SDS011;47998;53.242;6.386;2023-09-08T14:42:31;6.55;;;3.42;;
51578;SDS011;47998;53.242;6.386;2023-09-08T14:44:56;10.32;;;3.30;;
51578;SDS011;47998;53.242;6.386;2023-09-08T14:47:22;5.07;;;3.00;;
51578;SDS011;47998;53.242;6.386;2023-09-08T14:49:48;5.53;;;3.05;;